Atherton, California
Current Conditions -  °F | °C
As of 8:47 AM on Saturday 22 Nov 2014 (Local Time) from KPAO Reporting Station
Overcast Overcast  
Wind Chill: 61°   Ceiling: 2800
Heat Index: 61°   Visibility: 7mi
Dew Point: 55°   Wind: 9mph
Humidity: 82%   Direction: 170°S
Pressure: 30.1"   Gusts: NA
Location:  37.46°N, 122.19°W
Report Text: KPAO 221647Z 17008KT 7SM FEW014 BKN028 OVC037 16/13 A3010
Loading
Personal Weather Stations






























Interactive Weather Map New forecast layout! Learn more

10-Day Weather Forecast

Advertisements
Track Severe Weather on mobile